sensor_id;sensor_type;location;lat;lon;timestamp;pressure;altitude;pressure_sealevel;temperature;humidity
49759;BME280;70329;45.524;10.194;2023-06-14T00:00:22;99660.69;;;20.25;86.47
49759;BME280;70329;45.524;10.194;2023-06-14T00:02:49;99650.81;;;20.27;86.17
49759;BME280;70329;45.524;10.194;2023-06-14T00:05:15;99654.19;;;20.21;86.45
49759;BME280;70329;45.524;10.194;2023-06-14T00:07:42;99648.84;;;20.16;86.22
49759;BME280;70329;45.524;10.194;2023-06-14T00:10:10;99654.78;;;20.26;85.25
49759;BME280;70329;45.524;10.194;2023-06-14T00:12:38;99650.13;;;20.18;85.66
49759;BME280;70329;45.524;10.194;2023-06-14T00:15:05;99653.81;;;20.22;84.68
49759;BME280;70329;45.524;10.194;2023-06-14T00:17:32;99656.41;;;20.15;84.56
49759;BME280;70329;45.524;10.194;2023-06-14T00:19:59;99651.41;;;20.21;84.60
49759;BME280;70329;45.524;10.194;2023-06-14T00:22:25;99648.84;;;20.28;84.73
49759;BME280;70329;45.524;10.194;2023-06-14T00:24:52;99655.94;;;20.25;84.79
49759;BME280;70329;45.524;10.194;2023-06-14T00:27:18;99648.16;;;20.19;85.70
49759;BME280;70329;45.524;10.194;2023-06-14T00:29:45;99645.63;;;20.14;85.73
49759;BME280;70329;45.524;10.194;2023-06-14T00:32:12;99647.03;;;20.08;86.17
49759;BME280;70329;45.524;10.194;2023-06-14T00:34:39;99647.25;;;20.15;85.47
49759;BME280;70329;45.524;10.194;2023-06-14T00:37:05;99642.84;;;20.14;85.90
49759;BME280;70329;45.524;10.194;2023-06-14T00:39:32;99645.28;;;20.15;85.90
49759;BME280;70329;45.524;10.194;2023-06-14T00:41:59;99630.56;;;20.15;85.30
49759;BME280;70329;45.524;10.194;2023-06-14T00:44:25;99637.41;;;20.17;85.31
49759;BME280;70329;45.524;10.194;2023-06-14T00:46:52;99634.50;;;20.14;84.83
49759;BME280;70329;45.524;10.194;2023-06-14T00:49:19;99635.88;;;20.20;84.38
49759;BME280;70329;45.524;10.194;2023-06-14T00:51:45;99634.34;;;20.22;84.29
49759;BME280;70329;45.524;10.194;2023-06-14T00:54:11;99630.75;;;20.22;82.62
49759;BME280;70329;45.524;10.194;2023-06-14T00:56:39;99639.38;;;20.29;82.19
49759;BME280;70329;45.524;10.194;2023-06-14T00:59:05;99627.09;;;20.18;82.63
49759;BME280;70329;45.524;10.194;2023-06-14T01:01:31;99633.50;;;20.06;83.87
49759;BME280;70329;45.524;10.194;2023-06-14T01:04:00;99630.34;;;20.08;83.25
49759;BME280;70329;45.524;10.194;2023-06-14T01:15:12;99616.94;;;20.10;83.06
49759;BME280;70329;45.524;10.194;2023-06-14T01:17:40;99614.28;;;20.01;83.09
49759;BME280;70329;45.524;10.194;2023-06-14T01:20:11;99609.50;;;20.02;82.66
49759;BME280;70329;45.524;10.194;2023-06-14T01:23:07;99615.75;;;20.11;82.19
49759;BME280;70329;45.524;10.194;2023-06-14T01:25:33;99609.28;;;20.07;82.56
49759;BME280;70329;45.524;10.194;2023-06-14T01:28:04;99607.19;;;20.04;82.66
49759;BME280;70329;45.524;10.194;2023-06-14T01:30:41;99603.25;;;20.05;82.19
49759;BME280;70329;45.524;10.194;2023-06-14T01:33:18;99609.41;;;19.98;82.82
49759;BME280;70329;45.524;10.194;2023-06-14T01:35:48;99605.44;;;20.11;82.21
49759;BME280;70329;45.524;10.194;2023-06-14T01:38:17;99604.69;;;19.99;83.16
49759;BME280;70329;45.524;10.194;2023-06-14T01:40:44;99605.56;;;20.03;83.07
49759;BME280;70329;45.524;10.194;2023-06-14T01:43:15;99604.81;;;19.90;84.24
49759;BME280;70329;45.524;10.194;2023-06-14T01:45:43;99605.47;;;19.99;83.34
49759;BME280;70329;45.524;10.194;2023-06-14T01:48:11;99600.00;;;20.03;83.17
49759;BME280;70329;45.524;10.194;2023-06-14T01:50:38;99604.56;;;19.95;83.43
49759;BME280;70329;45.524;10.194;2023-06-14T01:53:09;99596.22;;;19.95;83.06
49759;BME280;70329;45.524;10.194;2023-06-14T01:55:36;99600.00;;;20.03;82.70
49759;BME280;70329;45.524;10.194;2023-06-14T01:58:10;99595.72;;;20.05;82.70
49759;BME280;70329;45.524;10.194;2023-06-14T02:00:36;99600.97;;;19.95;83.44
49759;BME280;70329;45.524;10.194;2023-06-14T02:03:03;99605.03;;;19.85;84.25
49759;BME280;70329;45.524;10.194;2023-06-14T02:05:32;99610.69;;;19.89;84.30
49759;BME280;70329;45.524;10.194;2023-06-14T02:07:59;99607.09;;;20.00;83.58
49759;BME280;70329;45.524;10.194;2023-06-14T02:10:24;99601.72;;;20.07;83.58
49759;BME280;70329;45.524;10.194;2023-06-14T02:12:50;99599.19;;;20.02;83.71
49759;BME280;70329;45.524;10.194;2023-06-14T02:15:16;99602.22;;;20.09;83.33
49759;BME280;70329;45.524;10.194;2023-06-14T02:17:44;99609.16;;;20.15;83.15
49759;BME280;70329;45.524;10.194;2023-06-14T02:20:11;99601.41;;;20.09;83.70
49759;BME280;70329;45.524;10.194;2023-06-14T02:22:38;99605.69;;;20.06;84.77
49759;BME280;70329;45.524;10.194;2023-06-14T02:25:05;99603.94;;;20.02;85.49
49759;BME280;70329;45.524;10.194;2023-06-14T02:27:33;99604.81;;;19.90;85.82
49759;BME280;70329;45.524;10.194;2023-06-14T02:30:00;99604.34;;;19.88;85.78
49759;BME280;70329;45.524;10.194;2023-06-14T02:32:27;99601.66;;;19.92;85.66
49759;BME280;70329;45.524;10.194;2023-06-14T02:34:54;99600.28;;;19.86;85.28
49759;BME280;70329;45.524;10.194;2023-06-14T02:37:21;99605.38;;;19.96;85.35
49759;BME280;70329;45.524;10.194;2023-06-14T02:39:48;99603.63;;;19.91;84.47
49759;BME280;70329;45.524;10.194;2023-06-14T02:42:14;99595.91;;;19.85;85.66
49759;BME280;70329;45.524;10.194;2023-06-14T02:44:41;99609.09;;;19.88;86.03
49759;BME280;70329;45.524;10.194;2023-06-14T02:47:08;99607.47;;;19.87;85.01
49759;BME280;70329;45.524;10.194;2023-06-14T02:49:34;99601.59;;;19.76;86.08
49759;BME280;70329;45.524;10.194;2023-06-14T02:52:01;99599.38;;;19.82;87.32
49759;BME280;70329;45.524;10.194;2023-06-14T02:54:27;99604.38;;;19.76;87.54
49759;BME280;70329;45.524;10.194;2023-06-14T02:56:54;99602.28;;;19.73;87.43
49759;BME280;70329;45.524;10.194;2023-06-14T02:59:20;99603.31;;;19.68;87.90
49759;BME280;70329;45.524;10.194;2023-06-14T03:01:48;99600.91;;;19.55;88.81
49759;BME280;70329;45.524;10.194;2023-06-14T03:04:14;99601.59;;;19.52;89.36
49759;BME280;70329;45.524;10.194;2023-06-14T03:06:41;99602.41;;;19.52;88.44
49759;BME280;70329;45.524;10.194;2023-06-14T03:09:10;99592.50;;;19.51;87.79
49759;BME280;70329;45.524;10.194;2023-06-14T03:11:36;99602.75;;;19.63;87.51
49759;BME280;70329;45.524;10.194;2023-06-14T03:14:03;99596.88;;;19.64;86.66
49759;BME280;70329;45.524;10.194;2023-06-14T03:16:30;99589.56;;;19.60;86.71
49759;BME280;70329;45.524;10.194;2023-06-14T03:18:57;99584.56;;;19.65;86.16
49759;BME280;70329;45.524;10.194;2023-06-14T03:21:24;99588.66;;;19.56;85.70
49759;BME280;70329;45.524;10.194;2023-06-14T03:23:52;99586.00;;;19.59;85.03
49759;BME280;70329;45.524;10.194;2023-06-14T03:26:19;99587.03;;;19.67;84.53
49759;BME280;70329;45.524;10.194;2023-06-14T03:28:47;99580.75;;;19.70;84.36
49759;BME280;70329;45.524;10.194;2023-06-14T03:31:13;99583.09;;;19.68;84.22
49759;BME280;70329;45.524;10.194;2023-06-14T03:33:41;99581.72;;;19.62;84.22
49759;BME280;70329;45.524;10.194;2023-06-14T03:36:08;99573.13;;;19.67;83.69
49759;BME280;70329;45.524;10.194;2023-06-14T03:38:34;99579.69;;;19.74;83.10
49759;BME280;70329;45.524;10.194;2023-06-14T03:41:00;99575.53;;;19.68;83.20
49759;BME280;70329;45.524;10.194;2023-06-14T03:43:25;99586.44;;;19.73;82.40
49759;BME280;70329;45.524;10.194;2023-06-14T03:45:51;99584.44;;;19.74;82.01
49759;BME280;70329;45.524;10.194;2023-06-14T03:48:16;99581.34;;;19.75;82.31
49759;BME280;70329;45.524;10.194;2023-06-14T03:50:42;99594.53;;;19.79;82.61
49759;BME280;70329;45.524;10.194;2023-06-14T03:53:09;99583.28;;;19.75;83.43
49759;BME280;70329;45.524;10.194;2023-06-14T03:55:36;99583.19;;;19.71;83.52
49759;BME280;70329;45.524;10.194;2023-06-14T03:58:04;99585.06;;;19.67;83.57
49759;BME280;70329;45.524;10.194;2023-06-14T04:00:31;99584.34;;;19.70;83.54
49759;BME280;70329;45.524;10.194;2023-06-14T04:02:58;99590.94;;;19.66;83.74
49759;BME280;70329;45.524;10.194;2023-06-14T04:05:25;99590.69;;;19.71;83.71
49759;BME280;70329;45.524;10.194;2023-06-14T04:11:07;99594.03;;;19.76;82.88
49759;BME280;70329;45.524;10.194;2023-06-14T04:13:34;99592.19;;;19.81;82.78
49759;BME280;70329;45.524;10.194;2023-06-14T04:16:01;99593.00;;;19.81;82.56
49759;BME280;70329;45.524;10.194;2023-06-14T04:18:28;99591.38;;;19.80;82.59
49759;BME280;70329;45.524;10.194;2023-06-14T04:20:55;99590.81;;;19.74;82.87
49759;BME280;70329;45.524;10.194;2023-06-14T04:23:21;99593.72;;;19.78;82.62
49759;BME280;70329;45.524;10.194;2023-06-14T04:25:48;99602.16;;;19.82;82.49
49759;BME280;70329;45.524;10.194;2023-06-14T04:28:16;99597.63;;;19.77;82.72
49759;BME280;70329;45.524;10.194;2023-06-14T04:30:43;99602.75;;;19.75;83.07
49759;BME280;70329;45.524;10.194;2023-06-14T04:33:11;99605.53;;;19.75;83.30
49759;BME280;70329;45.524;10.194;2023-06-14T04:35:37;99605.41;;;19.71;83.39
49759;BME280;70329;45.524;10.194;2023-06-14T04:38:05;99607.72;;;19.82;82.34
49759;BME280;70329;45.524;10.194;2023-06-14T04:40:36;99608.28;;;19.87;82.10
49759;BME280;70329;45.524;10.194;2023-06-14T04:43:09;99607.22;;;19.92;81.59
49759;BME280;70329;45.524;10.194;2023-06-14T04:45:39;99610.25;;;19.99;81.63
49759;BME280;70329;45.524;10.194;2023-06-14T04:48:06;99609.50;;;20.02;81.27
49759;BME280;70329;45.524;10.194;2023-06-14T04:50:33;99611.81;;;20.12;80.92
49759;BME280;70329;45.524;10.194;2023-06-14T04:53:04;99616.81;;;20.06;81.14
49759;BME280;70329;45.524;10.194;2023-06-14T04:55:32;99619.34;;;20.11;80.48
49759;BME280;70329;45.524;10.194;2023-06-14T04:58:13;99620.16;;;20.12;80.12
49759;BME280;70329;45.524;10.194;2023-06-14T05:00:38;99612.25;;;20.14;79.46
49759;BME280;70329;45.524;10.194;2023-06-14T05:03:05;99614.34;;;20.29;79.03
49759;BME280;70329;45.524;10.194;2023-06-14T05:05:33;99620.72;;;20.29;78.90
49759;BME280;70329;45.524;10.194;2023-06-14T05:08:00;99625.53;;;20.32;78.52
49759;BME280;70329;45.524;10.194;2023-06-14T05:10:25;99624.94;;;20.39;78.08
49759;BME280;70329;45.524;10.194;2023-06-14T05:12:51;99625.50;;;20.45;78.33
49759;BME280;70329;45.524;10.194;2023-06-14T05:15:18;99628.66;;;20.43;78.58
49759;BME280;70329;45.524;10.194;2023-06-14T05:17:46;99625.50;;;20.45;78.15
49759;BME280;70329;45.524;10.194;2023-06-14T05:20:19;99636.38;;;20.50;78.48
49759;BME280;70329;45.524;10.194;2023-06-14T05:22:45;99627.69;;;20.51;78.02
49759;BME280;70329;45.524;10.194;2023-06-14T05:25:12;99638.44;;;20.53;77.54
49759;BME280;70329;45.524;10.194;2023-06-14T05:27:39;99636.47;;;20.53;77.27
49759;BME280;70329;45.524;10.194;2023-06-14T05:30:08;99636.84;;;20.52;77.57
49759;BME280;70329;45.524;10.194;2023-06-14T05:32:35;99638.09;;;20.54;77.27
49759;BME280;70329;45.524;10.194;2023-06-14T05:35:01;99636.59;;;20.57;76.68
49759;BME280;70329;45.524;10.194;2023-06-14T05:37:28;99633.31;;;20.55;76.05
49759;BME280;70329;45.524;10.194;2023-06-14T05:39:54;99638.00;;;20.51;76.42
49759;BME280;70329;45.524;10.194;2023-06-14T05:42:21;99637.41;;;20.57;76.55
49759;BME280;70329;45.524;10.194;2023-06-14T05:44:48;99642.72;;;20.62;76.29
49759;BME280;70329;45.524;10.194;2023-06-14T05:47:15;99638.41;;;20.65;76.28
49759;BME280;70329;45.524;10.194;2023-06-14T05:49:42;99651.16;;;20.66;76.63
49759;BME280;70329;45.524;10.194;2023-06-14T05:52:09;99644.84;;;20.69;76.52
49759;BME280;70329;45.524;10.194;2023-06-14T05:54:36;99653.06;;;20.77;75.90
49759;BME280;70329;45.524;10.194;2023-06-14T05:57:03;99658.97;;;20.76;76.22
49759;BME280;70329;45.524;10.194;2023-06-14T05:59:31;99659.28;;;20.86;75.88
49759;BME280;70329;45.524;10.194;2023-06-14T06:01:58;99655.88;;;20.93;74.24
49759;BME280;70329;45.524;10.194;2023-06-14T06:04:24;99662.44;;;21.01;74.28
49759;BME280;70329;45.524;10.194;2023-06-14T06:06:51;99664.84;;;21.02;74.40
49759;BME280;70329;45.524;10.194;2023-06-14T06:09:17;99668.56;;;21.06;73.68
49759;BME280;70329;45.524;10.194;2023-06-14T06:11:45;99668.31;;;21.11;73.72
49759;BME280;70329;45.524;10.194;2023-06-14T06:14:12;99662.84;;;21.15;73.57
49759;BME280;70329;45.524;10.194;2023-06-14T06:16:37;99674.97;;;21.22;73.03
49759;BME280;70329;45.524;10.194;2023-06-14T06:19:03;99661.97;;;21.26;73.39
49759;BME280;70329;45.524;10.194;2023-06-14T06:21:30;99669.59;;;21.29;72.87
49759;BME280;70329;45.524;10.194;2023-06-14T06:23:58;99670.50;;;21.33;72.72
49759;BME280;70329;45.524;10.194;2023-06-14T06:26:24;99661.78;;;21.35;72.78
49759;BME280;70329;45.524;10.194;2023-06-14T06:28:53;99674.63;;;21.39;73.07
49759;BME280;70329;45.524;10.194;2023-06-14T06:31:18;99676.06;;;21.33;72.36
49759;BME280;70329;45.524;10.194;2023-06-14T06:33:43;99678.13;;;21.36;73.12
49759;BME280;70329;45.524;10.194;2023-06-14T06:36:09;99682.91;;;21.52;72.51
49759;BME280;70329;45.524;10.194;2023-06-14T06:38:34;99679.75;;;21.53;72.41
49759;BME280;70329;45.524;10.194;2023-06-14T06:41:00;99676.88;;;21.65;71.81
49759;BME280;70329;45.524;10.194;2023-06-14T06:43:25;99683.31;;;21.69;71.68
49759;BME280;70329;45.524;10.194;2023-06-14T06:45:52;99687.19;;;21.80;71.75
49759;BME280;70329;45.524;10.194;2023-06-14T06:48:19;99687.28;;;21.84;71.02
49759;BME280;70329;45.524;10.194;2023-06-14T06:50:46;99693.31;;;21.86;70.34
49759;BME280;70329;45.524;10.194;2023-06-14T06:53:12;99687.56;;;21.94;69.71
49759;BME280;70329;45.524;10.194;2023-06-14T06:55:39;99688.47;;;21.98;69.76
49759;BME280;70329;45.524;10.194;2023-06-14T06:58:06;99690.31;;;22.10;68.69
49759;BME280;70329;45.524;10.194;2023-06-14T07:00:32;99697.91;;;21.94;68.95
49759;BME280;70329;45.524;10.194;2023-06-14T07:03:01;99697.88;;;22.10;67.33
49759;BME280;70329;45.524;10.194;2023-06-14T07:05:29;99702.44;;;22.18;67.32
49759;BME280;70329;45.524;10.194;2023-06-14T07:07:54;99706.66;;;22.27;67.07
49759;BME280;70329;45.524;10.194;2023-06-14T07:10:21;99703.38;;;22.41;65.59
49759;BME280;70329;45.524;10.194;2023-06-14T07:12:47;99703.00;;;22.42;64.94
49759;BME280;70329;45.524;10.194;2023-06-14T07:15:13;99709.69;;;22.57;65.79
49759;BME280;70329;45.524;10.194;2023-06-14T07:17:39;99704.06;;;22.73;64.43
49759;BME280;70329;45.524;10.194;2023-06-14T07:20:07;99703.78;;;22.78;63.44
49759;BME280;70329;45.524;10.194;2023-06-14T07:22:41;99710.31;;;22.85;63.80
49759;BME280;70329;45.524;10.194;2023-06-14T07:25:12;99707.66;;;22.92;63.33
49759;BME280;70329;45.524;10.194;2023-06-14T07:27:41;99705.31;;;22.94;62.97
49759;BME280;70329;45.524;10.194;2023-06-14T07:30:09;99716.31;;;23.06;64.12
49759;BME280;70329;45.524;10.194;2023-06-14T07:32:36;99716.88;;;23.15;64.51
49759;BME280;70329;45.524;10.194;2023-06-14T07:35:03;99719.06;;;23.26;64.50
49759;BME280;70329;45.524;10.194;2023-06-14T07:37:29;99725.16;;;23.31;65.53
49759;BME280;70329;45.524;10.194;2023-06-14T07:39:57;99711.25;;;23.35;65.94
49759;BME280;70329;45.524;10.194;2023-06-14T07:42:23;99712.44;;;23.34;64.94
49759;BME280;70329;45.524;10.194;2023-06-14T07:44:50;99717.28;;;23.37;65.75
49759;BME280;70329;45.524;10.194;2023-06-14T07:47:18;99713.22;;;23.34;66.96
49759;BME280;70329;45.524;10.194;2023-06-14T07:49:45;99714.06;;;23.35;66.63
49759;BME280;70329;45.524;10.194;2023-06-14T07:52:11;99709.91;;;23.25;65.94
49759;BME280;70329;45.524;10.194;2023-06-14T07:54:39;99715.69;;;22.94;65.33
49759;BME280;70329;45.524;10.194;2023-06-14T07:57:07;99719.84;;;23.03;66.23
49759;BME280;70329;45.524;10.194;2023-06-14T07:59:33;99717.28;;;23.14;66.79
49759;BME280;70329;45.524;10.194;2023-06-14T08:02:00;99714.28;;;23.26;67.65
49759;BME280;70329;45.524;10.194;2023-06-14T08:04:27;99719.56;;;23.31;65.57
49759;BME280;70329;45.524;10.194;2023-06-14T08:06:54;99717.28;;;23.37;67.79
49759;BME280;70329;45.524;10.194;2023-06-14T08:09:20;99719.84;;;23.45;69.21
49759;BME280;70329;45.524;10.194;2023-06-14T08:11:47;99713.16;;;23.50;69.41
49759;BME280;70329;45.524;10.194;2023-06-14T08:14:13;99728.50;;;23.59;68.96
49759;BME280;70329;45.524;10.194;2023-06-14T08:16:40;99725.09;;;23.69;68.31
49759;BME280;70329;45.524;10.194;2023-06-14T08:19:07;99724.88;;;23.82;67.63
49759;BME280;70329;45.524;10.194;2023-06-14T08:21:34;99723.94;;;23.97;66.65
49759;BME280;70329;45.524;10.194;2023-06-14T08:24:03;99723.50;;;24.17;66.34
49759;BME280;70329;45.524;10.194;2023-06-14T08:26:29;99730.47;;;24.60;65.85
49759;BME280;70329;45.524;10.194;2023-06-14T08:28:55;99725.75;;;24.94;62.70
49759;BME280;70329;45.524;10.194;2023-06-14T08:31:21;99733.00;;;24.99;63.07
49759;BME280;70329;45.524;10.194;2023-06-14T08:33:48;99731.63;;;25.15;61.78
49759;BME280;70329;45.524;10.194;2023-06-14T08:36:14;99732.84;;;25.18;60.85
49759;BME280;70329;45.524;10.194;2023-06-14T08:38:41;99727.69;;;25.23;60.28
49759;BME280;70329;45.524;10.194;2023-06-14T08:41:11;99732.06;;;25.21;58.10
49759;BME280;70329;45.524;10.194;2023-06-14T08:43:39;99741.25;;;25.18;56.89
49759;BME280;70329;45.524;10.194;2023-06-14T08:46:07;99736.78;;;25.13;57.38
49759;BME280;70329;45.524;10.194;2023-06-14T08:48:36;99733.50;;;25.08;60.58
49759;BME280;70329;45.524;10.194;2023-06-14T08:51:04;99742.19;;;24.96;58.96
49759;BME280;70329;45.524;10.194;2023-06-14T08:53:34;99737.16;;;25.12;60.05
49759;BME280;70329;45.524;10.194;2023-06-14T08:56:02;99735.53;;;25.11;61.49
49759;BME280;70329;45.524;10.194;2023-06-14T08:58:31;99743.38;;;24.12;62.11
49759;BME280;70329;45.524;10.194;2023-06-14T09:01:04;99748.09;;;24.31;62.85
49759;BME280;70329;45.524;10.194;2023-06-14T09:03:31;99745.16;;;24.50;64.07
49759;BME280;70329;45.524;10.194;2023-06-14T09:05:59;99743.03;;;24.14;62.35
49759;BME280;70329;45.524;10.194;2023-06-14T09:08:27;99754.41;;;23.79;62.16
49759;BME280;70329;45.524;10.194;2023-06-14T09:10:57;99756.34;;;24.01;63.67
49759;BME280;70329;45.524;10.194;2023-06-14T09:13:23;99752.38;;;24.25;61.16
49759;BME280;70329;45.524;10.194;2023-06-14T09:15:50;99755.06;;;24.44;60.47
49759;BME280;70329;45.524;10.194;2023-06-14T09:18:17;99755.75;;;24.64;58.41
49759;BME280;70329;45.524;10.194;2023-06-14T09:20:46;99756.63;;;24.71;57.01
49759;BME280;70329;45.524;10.194;2023-06-14T09:23:20;99749.09;;;24.75;58.70
49759;BME280;70329;45.524;10.194;2023-06-14T09:25:48;99751.00;;;24.68;58.99
49759;BME280;70329;45.524;10.194;2023-06-14T09:28:14;99748.50;;;24.63;58.83
49759;BME280;70329;45.524;10.194;2023-06-14T09:30:41;99751.88;;;24.46;59.15
49759;BME280;70329;45.524;10.194;2023-06-14T09:33:08;99749.59;;;24.25;59.19
49759;BME280;70329;45.524;10.194;2023-06-14T09:35:35;99750.13;;;24.34;59.87
49759;BME280;70329;45.524;10.194;2023-06-14T09:38:02;99749.94;;;24.23;58.59
49759;BME280;70329;45.524;10.194;2023-06-14T09:40:33;99761.47;;;24.18;59.80
49759;BME280;70329;45.524;10.194;2023-06-14T09:43:00;99756.41;;;24.27;59.17
49759;BME280;70329;45.524;10.194;2023-06-14T09:45:29;99763.25;;;24.07;60.03
49759;BME280;70329;45.524;10.194;2023-06-14T09:47:57;99756.63;;;24.15;58.39
49759;BME280;70329;45.524;10.194;2023-06-14T09:50:23;99762.97;;;24.12;59.67
49759;BME280;70329;45.524;10.194;2023-06-14T09:52:52;99763.50;;;24.21;59.91
49759;BME280;70329;45.524;10.194;2023-06-14T09:55:19;99763.84;;;24.16;60.05
49759;BME280;70329;45.524;10.194;2023-06-14T09:57:45;99767.19;;;24.25;57.70
49759;BME280;70329;45.524;10.194;2023-06-14T10:00:13;99770.63;;;24.15;59.71
49759;BME280;70329;45.524;10.194;2023-06-14T10:02:42;99757.84;;;24.18;58.57
49759;BME280;70329;45.524;10.194;2023-06-14T10:05:15;99765.22;;;24.26;59.87
49759;BME280;70329;45.524;10.194;2023-06-14T10:10:07;99760.72;;;24.48;57.33
49759;BME280;70329;45.524;10.194;2023-06-14T10:12:34;99762.44;;;24.56;55.62
49759;BME280;70329;45.524;10.194;2023-06-14T10:15:01;99753.50;;;24.47;54.95
49759;BME280;70329;45.524;10.194;2023-06-14T10:20:39;99757.66;;;24.60;54.04
49759;BME280;70329;45.524;10.194;2023-06-14T10:25:36;99752.41;;;24.81;52.40
49759;BME280;70329;45.524;10.194;2023-06-14T10:28:18;99746.50;;;24.89;52.49
49759;BME280;70329;45.524;10.194;2023-06-14T10:31:09;99745.88;;;25.03;51.74
49759;BME280;70329;45.524;10.194;2023-06-14T10:39:09;99745.94;;;25.10;50.06
49759;BME280;70329;45.524;10.194;2023-06-14T10:41:41;99740.84;;;25.19;49.79
49759;BME280;70329;45.524;10.194;2023-06-14T10:46:52;99747.25;;;25.20;48.64
49759;BME280;70329;45.524;10.194;2023-06-14T10:49:40;99739.47;;;25.39;49.82
49759;BME280;70329;45.524;10.194;2023-06-14T10:52:13;99733.41;;;25.71;47.85
49759;BME280;70329;45.524;10.194;2023-06-14T10:57:39;99732.47;;;25.56;48.10
49759;BME280;70329;45.524;10.194;2023-06-14T11:00:07;99739.25;;;25.55;49.42
49759;BME280;70329;45.524;10.194;2023-06-14T11:05:52;99737.25;;;25.56;50.51
49759;BME280;70329;45.524;10.194;2023-06-14T11:11:22;99725.53;;;25.10;51.97
49759;BME280;70329;45.524;10.194;2023-06-14T11:13:51;99724.41;;;24.81;50.65
49759;BME280;70329;45.524;10.194;2023-06-14T11:16:18;99719.25;;;24.86;50.27
49759;BME280;70329;45.524;10.194;2023-06-14T11:18:47;99724.44;;;24.84;52.60
49759;BME280;70329;45.524;10.194;2023-06-14T11:21:19;99724.19;;;24.67;53.70
49759;BME280;70329;45.524;10.194;2023-06-14T11:23:54;99719.75;;;24.66;51.98
49759;BME280;70329;45.524;10.194;2023-06-14T11:26:28;99717.28;;;24.87;52.93
49759;BME280;70329;45.524;10.194;2023-06-14T11:28:57;99704.47;;;25.23;50.30
49759;BME280;70329;45.524;10.194;2023-06-14T11:31:23;99706.47;;;25.63;51.72
49759;BME280;70329;45.524;10.194;2023-06-14T11:33:53;99703.31;;;25.71;47.96
49759;BME280;70329;45.524;10.194;2023-06-14T11:36:20;99703.63;;;26.07;48.90
49759;BME280;70329;45.524;10.194;2023-06-14T11:38:46;99705.66;;;26.10;48.15
49759;BME280;70329;45.524;10.194;2023-06-14T11:41:13;99705.09;;;25.90;49.25
49759;BME280;70329;45.524;10.194;2023-06-14T11:43:40;99700.66;;;26.40;45.79
49759;BME280;70329;45.524;10.194;2023-06-14T11:46:13;99692.72;;;26.59;44.88
49759;BME280;70329;45.524;10.194;2023-06-14T11:48:41;99686.59;;;26.40;42.35
49759;BME280;70329;45.524;10.194;2023-06-14T11:51:09;99692.28;;;26.50;45.71
49759;BME280;70329;45.524;10.194;2023-06-14T11:53:36;99684.75;;;26.76;41.60
49759;BME280;70329;45.524;10.194;2023-06-14T11:56:03;99686.03;;;26.85;43.19
49759;BME280;70329;45.524;10.194;2023-06-14T11:58:29;99684.03;;;26.89;44.94
49759;BME280;70329;45.524;10.194;2023-06-14T12:00:55;99680.47;;;27.06;43.21
49759;BME280;70329;45.524;10.194;2023-06-14T12:03:25;99677.28;;;27.15;41.48
49759;BME280;70329;45.524;10.194;2023-06-14T12:08:37;99671.66;;;27.11;44.81
49759;BME280;70329;45.524;10.194;2023-06-14T12:11:16;99676.69;;;26.60;43.40
49759;BME280;70329;45.524;10.194;2023-06-14T12:13:43;99671.44;;;26.58;43.37
49759;BME280;70329;45.524;10.194;2023-06-14T12:16:11;99666.00;;;26.97;43.50
49759;BME280;70329;45.524;10.194;2023-06-14T12:18:39;99665.94;;;26.83;43.53
49759;BME280;70329;45.524;10.194;2023-06-14T12:21:08;99659.88;;;26.71;44.05
49759;BME280;70329;45.524;10.194;2023-06-14T12:23:45;99656.91;;;26.35;43.01
49759;BME280;70329;45.524;10.194;2023-06-14T12:26:16;99658.97;;;26.52;39.27
49759;BME280;70329;45.524;10.194;2023-06-14T12:28:47;99651.28;;;26.32;39.38
49759;BME280;70329;45.524;10.194;2023-06-14T12:31:15;99659.72;;;26.35;42.54
49759;BME280;70329;45.524;10.194;2023-06-14T12:33:42;99653.19;;;26.17;41.53
49759;BME280;70329;45.524;10.194;2023-06-14T12:36:10;99654.31;;;26.09;43.63
49759;BME280;70329;45.524;10.194;2023-06-14T12:38:37;99658.09;;;26.34;44.05
49759;BME280;70329;45.524;10.194;2023-06-14T12:41:04;99650.69;;;26.81;41.21
49759;BME280;70329;45.524;10.194;2023-06-14T12:43:31;99651.03;;;26.69;43.42
49759;BME280;70329;45.524;10.194;2023-06-14T12:45:57;99650.59;;;26.67;44.62
49759;BME280;70329;45.524;10.194;2023-06-14T12:48:24;99648.31;;;26.83;43.82
49759;BME280;70329;45.524;10.194;2023-06-14T12:50:54;99656.09;;;26.38;46.25
49759;BME280;70329;45.524;10.194;2023-06-14T12:53:20;99648.97;;;26.58;46.42
49759;BME280;70329;45.524;10.194;2023-06-14T12:55:47;99647.81;;;26.63;46.55
49759;BME280;70329;45.524;10.194;2023-06-14T12:58:14;99647.00;;;26.63;46.33
49759;BME280;70329;45.524;10.194;2023-06-14T13:00:40;99644.44;;;26.29;46.48
49759;BME280;70329;45.524;10.194;2023-06-14T13:03:07;99647.38;;;25.89;46.55
49759;BME280;70329;45.524;10.194;2023-06-14T13:05:34;99644.78;;;25.66;47.61
49759;BME280;70329;45.524;10.194;2023-06-14T13:08:01;99645.59;;;26.18;47.11
49759;BME280;70329;45.524;10.194;2023-06-14T13:10:27;99645.91;;;26.09;45.91
49759;BME280;70329;45.524;10.194;2023-06-14T13:12:54;99645.28;;;26.44;45.92
49759;BME280;70329;45.524;10.194;2023-06-14T13:15:21;99635.84;;;26.84;45.68
49759;BME280;70329;45.524;10.194;2023-06-14T13:17:47;99633.88;;;26.98;44.14
49759;BME280;70329;45.524;10.194;2023-06-14T13:20:14;99630.16;;;26.66;45.99
49759;BME280;70329;45.524;10.194;2023-06-14T13:22:41;99629.84;;;26.85;47.36
49759;BME280;70329;45.524;10.194;2023-06-14T13:25:08;99636.03;;;26.33;46.84
49759;BME280;70329;45.524;10.194;2023-06-14T13:27:34;99631.75;;;26.63;47.33
49759;BME280;70329;45.524;10.194;2023-06-14T13:30:03;99633.28;;;26.43;47.40
49759;BME280;70329;45.524;10.194;2023-06-14T13:32:30;99629.75;;;26.68;47.83